sensor_id;sensor_type;location;lat;lon;timestamp;P1;durP1;ratioP1;P2;durP2;ratioP2
53062;SDS011;40529;52.172;10.548;2023-04-25T00:00:01;10.60;;;4.47;;
53062;SDS011;40529;52.172;10.548;2023-04-25T00:02:34;13.65;;;4.82;;
53062;SDS011;40529;52.172;10.548;2023-04-25T00:05:00;15.30;;;5.25;;
53062;SDS011;40529;52.172;10.548;2023-04-25T00:07:28;11.20;;;5.18;;
53062;SDS011;40529;52.172;10.548;2023-04-25T00:09:54;15.02;;;4.90;;
53062;SDS011;40529;52.172;10.548;2023-04-25T00:12:20;13.68;;;5.30;;
53062;SDS011;40529;52.172;10.548;2023-04-25T00:14:47;12.65;;;5.10;;
53062;SDS011;40529;52.172;10.548;2023-04-25T00:17:15;10.52;;;5.40;;
53062;SDS011;40529;52.172;10.548;2023-04-25T00:19:41;16.65;;;5.20;;
53062;SDS011;40529;52.172;10.548;2023-04-25T00:22:09;13.63;;;5.13;;
53062;SDS011;40529;52.172;10.548;2023-04-25T00:24:36;16.23;;;5.80;;
53062;SDS011;40529;52.172;10.548;2023-04-25T00:27:02;13.52;;;5.32;;
53062;SDS011;40529;52.172;10.548;2023-04-25T00:29:28;14.05;;;5.57;;
53062;SDS011;40529;52.172;10.548;2023-04-25T00:31:55;13.13;;;5.20;;
53062;SDS011;40529;52.172;10.548;2023-04-25T00:34:21;12.35;;;5.38;;
53062;SDS011;40529;52.172;10.548;2023-04-25T00:36:47;10.95;;;4.72;;
53062;SDS011;40529;52.172;10.548;2023-04-25T00:39:13;12.77;;;4.90;;
53062;SDS011;40529;52.172;10.548;2023-04-25T00:41:39;8.23;;;4.43;;
53062;SDS011;40529;52.172;10.548;2023-04-25T00:44:05;14.38;;;5.57;;
53062;SDS011;40529;52.172;10.548;2023-04-25T00:46:31;19.83;;;5.10;;
53062;SDS011;40529;52.172;10.548;2023-04-25T00:48:58;15.95;;;5.05;;
53062;SDS011;40529;52.172;10.548;2023-04-25T00:51:24;11.98;;;4.70;;
53062;SDS011;40529;52.172;10.548;2023-04-25T00:53:51;14.13;;;5.57;;
53062;SDS011;40529;52.172;10.548;2023-04-25T00:56:17;12.68;;;4.85;;
53062;SDS011;40529;52.172;10.548;2023-04-25T00:58:43;12.88;;;6.03;;
53062;SDS011;40529;52.172;10.548;2023-04-25T01:01:10;12.82;;;5.15;;
53062;SDS011;40529;52.172;10.548;2023-04-25T01:03:37;15.18;;;5.57;;
53062;SDS011;40529;52.172;10.548;2023-04-25T01:06:10;14.30;;;4.97;;
53062;SDS011;40529;52.172;10.548;2023-04-25T01:08:37;14.32;;;5.22;;
53062;SDS011;40529;52.172;10.548;2023-04-25T01:11:03;15.88;;;6.00;;
53062;SDS011;40529;52.172;10.548;2023-04-25T01:13:30;11.98;;;6.03;;
53062;SDS011;40529;52.172;10.548;2023-04-25T01:15:57;10.38;;;4.93;;
53062;SDS011;40529;52.172;10.548;2023-04-25T01:18:23;14.63;;;6.30;;
53062;SDS011;40529;52.172;10.548;2023-04-25T01:20:50;12.57;;;4.95;;
53062;SDS011;40529;52.172;10.548;2023-04-25T01:23:17;10.65;;;5.10;;
53062;SDS011;40529;52.172;10.548;2023-04-25T01:25:43;14.00;;;4.72;;
53062;SDS011;40529;52.172;10.548;2023-04-25T01:28:10;12.45;;;5.28;;
53062;SDS011;40529;52.172;10.548;2023-04-25T01:30:36;13.52;;;5.00;;
53062;SDS011;40529;52.172;10.548;2023-04-25T01:33:02;11.10;;;5.20;;
53062;SDS011;40529;52.172;10.548;2023-04-25T01:35:30;12.18;;;5.03;;
53062;SDS011;40529;52.172;10.548;2023-04-25T01:37:57;15.35;;;7.40;;
53062;SDS011;40529;52.172;10.548;2023-04-25T01:40:23;11.18;;;5.25;;
53062;SDS011;40529;52.172;10.548;2023-04-25T01:42:50;15.40;;;5.07;;
53062;SDS011;40529;52.172;10.548;2023-04-25T01:45:16;11.10;;;5.55;;
53062;SDS011;40529;52.172;10.548;2023-04-25T01:47:43;16.10;;;5.65;;
53062;SDS011;40529;52.172;10.548;2023-04-25T01:50:13;14.30;;;5.43;;
53062;SDS011;40529;52.172;10.548;2023-04-25T01:52:39;13.40;;;6.07;;
53062;SDS011;40529;52.172;10.548;2023-04-25T01:55:06;13.10;;;5.43;;
53062;SDS011;40529;52.172;10.548;2023-04-25T01:57:32;18.60;;;6.85;;
53062;SDS011;40529;52.172;10.548;2023-04-25T01:59:59;14.13;;;6.32;;
53062;SDS011;40529;52.172;10.548;2023-04-25T02:02:25;13.68;;;6.03;;
53062;SDS011;40529;52.172;10.548;2023-04-25T02:04:51;13.13;;;6.38;;
53062;SDS011;40529;52.172;10.548;2023-04-25T02:07:17;10.80;;;5.90;;
53062;SDS011;40529;52.172;10.548;2023-04-25T02:09:43;17.90;;;6.50;;
53062;SDS011;40529;52.172;10.548;2023-04-25T02:12:09;17.75;;;6.40;;
53062;SDS011;40529;52.172;10.548;2023-04-25T02:14:36;13.50;;;6.22;;
53062;SDS011;40529;52.172;10.548;2023-04-25T02:17:02;15.27;;;6.50;;
53062;SDS011;40529;52.172;10.548;2023-04-25T02:19:28;17.80;;;6.65;;
53062;SDS011;40529;52.172;10.548;2023-04-25T02:21:54;24.33;;;6.57;;
53062;SDS011;40529;52.172;10.548;2023-04-25T02:24:22;14.00;;;6.32;;
53062;SDS011;40529;52.172;10.548;2023-04-25T02:26:48;15.15;;;6.32;;
53062;SDS011;40529;52.172;10.548;2023-04-25T02:29:14;14.10;;;5.70;;
53062;SDS011;40529;52.172;10.548;2023-04-25T02:31:40;16.17;;;5.43;;
53062;SDS011;40529;52.172;10.548;2023-04-25T02:34:06;15.35;;;6.40;;
53062;SDS011;40529;52.172;10.548;2023-04-25T02:36:32;14.68;;;6.13;;
53062;SDS011;40529;52.172;10.548;2023-04-25T02:39:00;19.33;;;6.60;;
53062;SDS011;40529;52.172;10.548;2023-04-25T02:41:27;15.88;;;7.53;;
53062;SDS011;40529;52.172;10.548;2023-04-25T02:43:53;13.40;;;6.63;;
53062;SDS011;40529;52.172;10.548;2023-04-25T02:46:19;15.70;;;6.78;;
53062;SDS011;40529;52.172;10.548;2023-04-25T02:48:46;16.98;;;7.50;;
53062;SDS011;40529;52.172;10.548;2023-04-25T02:51:12;14.90;;;6.32;;
53062;SDS011;40529;52.172;10.548;2023-04-25T02:53:38;14.75;;;6.85;;
53062;SDS011;40529;52.172;10.548;2023-04-25T02:56:04;17.65;;;7.55;;
53062;SDS011;40529;52.172;10.548;2023-04-25T02:58:30;15.75;;;7.00;;
53062;SDS011;40529;52.172;10.548;2023-04-25T03:00:56;15.48;;;6.85;;
53062;SDS011;40529;52.172;10.548;2023-04-25T03:03:22;13.43;;;7.28;;
53062;SDS011;40529;52.172;10.548;2023-04-25T03:05:49;15.38;;;7.13;;
53062;SDS011;40529;52.172;10.548;2023-04-25T03:08:16;12.65;;;6.80;;
53062;SDS011;40529;52.172;10.548;2023-04-25T03:10:42;13.07;;;7.20;;
53062;SDS011;40529;52.172;10.548;2023-04-25T03:13:08;15.02;;;7.10;;
53062;SDS011;40529;52.172;10.548;2023-04-25T03:15:34;17.42;;;7.20;;
53062;SDS011;40529;52.172;10.548;2023-04-25T03:18:00;13.52;;;7.35;;
53062;SDS011;40529;52.172;10.548;2023-04-25T03:20:27;15.30;;;8.02;;
53062;SDS011;40529;52.172;10.548;2023-04-25T03:22:53;15.50;;;7.53;;
53062;SDS011;40529;52.172;10.548;2023-04-25T03:25:19;14.23;;;7.20;;
53062;SDS011;40529;52.172;10.548;2023-04-25T03:27:46;14.15;;;7.53;;
53062;SDS011;40529;52.172;10.548;2023-04-25T03:30:12;13.05;;;7.05;;
53062;SDS011;40529;52.172;10.548;2023-04-25T03:32:38;16.08;;;6.97;;
53062;SDS011;40529;52.172;10.548;2023-04-25T03:35:04;17.17;;;7.13;;
53062;SDS011;40529;52.172;10.548;2023-04-25T03:37:30;14.18;;;6.45;;
53062;SDS011;40529;52.172;10.548;2023-04-25T03:39:56;16.60;;;8.20;;
53062;SDS011;40529;52.172;10.548;2023-04-25T03:42:22;12.45;;;6.85;;
53062;SDS011;40529;52.172;10.548;2023-04-25T03:44:49;14.32;;;7.38;;
53062;SDS011;40529;52.172;10.548;2023-04-25T03:47:15;14.77;;;8.15;;
53062;SDS011;40529;52.172;10.548;2023-04-25T03:49:41;14.60;;;7.00;;
53062;SDS011;40529;52.172;10.548;2023-04-25T03:52:07;12.35;;;7.03;;
53062;SDS011;40529;52.172;10.548;2023-04-25T03:54:33;14.80;;;6.72;;
53062;SDS011;40529;52.172;10.548;2023-04-25T03:56:59;13.02;;;7.22;;
53062;SDS011;40529;52.172;10.548;2023-04-25T03:59:25;14.45;;;7.40;;
53062;SDS011;40529;52.172;10.548;2023-04-25T04:01:51;16.95;;;8.02;;
53062;SDS011;40529;52.172;10.548;2023-04-25T04:04:18;16.65;;;7.78;;
53062;SDS011;40529;52.172;10.548;2023-04-25T04:06:44;16.90;;;8.57;;
53062;SDS011;40529;52.172;10.548;2023-04-25T04:09:10;17.13;;;8.65;;
53062;SDS011;40529;52.172;10.548;2023-04-25T04:11:37;18.20;;;9.25;;
53062;SDS011;40529;52.172;10.548;2023-04-25T04:14:04;18.95;;;9.70;;
53062;SDS011;40529;52.172;10.548;2023-04-25T04:16:31;15.55;;;9.23;;
53062;SDS011;40529;52.172;10.548;2023-04-25T04:18:57;20.27;;;9.52;;
53062;SDS011;40529;52.172;10.548;2023-04-25T04:21:23;15.55;;;7.95;;
53062;SDS011;40529;52.172;10.548;2023-04-25T04:23:49;23.20;;;9.25;;
53062;SDS011;40529;52.172;10.548;2023-04-25T04:26:15;22.20;;;8.73;;
53062;SDS011;40529;52.172;10.548;2023-04-25T04:28:41;20.35;;;6.78;;
53062;SDS011;40529;52.172;10.548;2023-04-25T04:31:07;18.08;;;6.07;;
53062;SDS011;40529;52.172;10.548;2023-04-25T04:33:34;21.70;;;6.25;;
53062;SDS011;40529;52.172;10.548;2023-04-25T04:36:01;22.23;;;6.07;;
53062;SDS011;40529;52.172;10.548;2023-04-25T04:38:28;20.13;;;6.20;;
53062;SDS011;40529;52.172;10.548;2023-04-25T04:40:54;20.60;;;5.32;;
53062;SDS011;40529;52.172;10.548;2023-04-25T04:43:20;16.92;;;5.05;;
53062;SDS011;40529;52.172;10.548;2023-04-25T04:45:48;20.15;;;4.78;;
53062;SDS011;40529;52.172;10.548;2023-04-25T04:48:15;21.25;;;5.35;;
53062;SDS011;40529;52.172;10.548;2023-04-25T04:50:42;21.60;;;5.43;;
53062;SDS011;40529;52.172;10.548;2023-04-25T04:53:10;19.00;;;5.90;;
53062;SDS011;40529;52.172;10.548;2023-04-25T04:55:36;22.98;;;5.78;;
53062;SDS011;40529;52.172;10.548;2023-04-25T04:58:03;27.75;;;7.32;;
53062;SDS011;40529;52.172;10.548;2023-04-25T05:00:29;22.65;;;6.70;;
53062;SDS011;40529;52.172;10.548;2023-04-25T05:02:55;20.10;;;5.82;;
53062;SDS011;40529;52.172;10.548;2023-04-25T05:05:21;26.77;;;6.55;;
53062;SDS011;40529;52.172;10.548;2023-04-25T05:07:47;19.80;;;5.78;;
53062;SDS011;40529;52.172;10.548;2023-04-25T05:10:13;28.80;;;6.05;;
53062;SDS011;40529;52.172;10.548;2023-04-25T05:12:40;23.83;;;6.53;;
53062;SDS011;40529;52.172;10.548;2023-04-25T05:15:06;22.10;;;6.07;;
53062;SDS011;40529;52.172;10.548;2023-04-25T05:17:32;21.38;;;6.78;;
53062;SDS011;40529;52.172;10.548;2023-04-25T05:19:58;31.08;;;7.43;;
53062;SDS011;40529;52.172;10.548;2023-04-25T05:22:24;21.40;;;6.05;;
53062;SDS011;40529;52.172;10.548;2023-04-25T05:24:51;19.05;;;5.53;;
53062;SDS011;40529;52.172;10.548;2023-04-25T05:27:17;21.48;;;5.85;;
53062;SDS011;40529;52.172;10.548;2023-04-25T05:29:44;29.52;;;7.60;;
53062;SDS011;40529;52.172;10.548;2023-04-25T05:32:10;21.73;;;6.82;;
53062;SDS011;40529;52.172;10.548;2023-04-25T05:34:36;19.23;;;5.35;;
53062;SDS011;40529;52.172;10.548;2023-04-25T05:37:02;21.67;;;5.57;;
53062;SDS011;40529;52.172;10.548;2023-04-25T05:39:28;24.80;;;6.75;;
53062;SDS011;40529;52.172;10.548;2023-04-25T05:41:54;18.42;;;4.78;;
53062;SDS011;40529;52.172;10.548;2023-04-25T05:44:23;18.48;;;5.72;;
53062;SDS011;40529;52.172;10.548;2023-04-25T05:46:50;14.53;;;5.03;;
53062;SDS011;40529;52.172;10.548;2023-04-25T05:49:16;24.77;;;5.30;;
53062;SDS011;40529;52.172;10.548;2023-04-25T05:51:42;27.38;;;5.38;;
53062;SDS011;40529;52.172;10.548;2023-04-25T05:54:08;20.05;;;5.68;;
53062;SDS011;40529;52.172;10.548;2023-04-25T05:56:34;16.17;;;4.75;;
53062;SDS011;40529;52.172;10.548;2023-04-25T05:59:00;15.75;;;4.60;;
53062;SDS011;40529;52.172;10.548;2023-04-25T06:01:26;17.23;;;4.32;;
53062;SDS011;40529;52.172;10.548;2023-04-25T06:03:52;24.35;;;5.47;;
53062;SDS011;40529;52.172;10.548;2023-04-25T06:06:18;21.42;;;5.00;;
53062;SDS011;40529;52.172;10.548;2023-04-25T06:08:44;19.58;;;4.32;;
53062;SDS011;40529;52.172;10.548;2023-04-25T06:11:11;29.80;;;4.43;;
53062;SDS011;40529;52.172;10.548;2023-04-25T06:13:37;24.65;;;4.10;;
53062;SDS011;40529;52.172;10.548;2023-04-25T06:16:03;20.55;;;3.75;;
53062;SDS011;40529;52.172;10.548;2023-04-25T06:18:29;22.33;;;5.00;;
53062;SDS011;40529;52.172;10.548;2023-04-25T06:20:55;15.80;;;3.65;;
53062;SDS011;40529;52.172;10.548;2023-04-25T06:23:21;24.13;;;5.22;;
53062;SDS011;40529;52.172;10.548;2023-04-25T06:25:47;16.00;;;3.58;;
53062;SDS011;40529;52.172;10.548;2023-04-25T06:28:13;20.88;;;5.25;;
53062;SDS011;40529;52.172;10.548;2023-04-25T06:30:39;23.80;;;4.40;;
53062;SDS011;40529;52.172;10.548;2023-04-25T06:33:05;13.43;;;3.33;;
53062;SDS011;40529;52.172;10.548;2023-04-25T06:35:33;12.65;;;3.47;;
53062;SDS011;40529;52.172;10.548;2023-04-25T06:37:59;21.58;;;4.85;;
53062;SDS011;40529;52.172;10.548;2023-04-25T06:40:25;14.60;;;4.18;;
53062;SDS011;40529;52.172;10.548;2023-04-25T06:42:51;22.55;;;4.05;;
53062;SDS011;40529;52.172;10.548;2023-04-25T06:45:17;22.15;;;5.05;;
53062;SDS011;40529;52.172;10.548;2023-04-25T06:47:43;14.07;;;3.65;;
53062;SDS011;40529;52.172;10.548;2023-04-25T06:50:09;19.20;;;3.78;;
53062;SDS011;40529;52.172;10.548;2023-04-25T06:52:36;23.33;;;4.05;;
53062;SDS011;40529;52.172;10.548;2023-04-25T06:55:02;14.43;;;3.53;;
53062;SDS011;40529;52.172;10.548;2023-04-25T06:57:29;16.27;;;3.65;;
53062;SDS011;40529;52.172;10.548;2023-04-25T06:59:55;18.90;;;4.20;;
53062;SDS011;40529;52.172;10.548;2023-04-25T07:02:21;22.38;;;3.30;;
53062;SDS011;40529;52.172;10.548;2023-04-25T07:04:47;13.93;;;3.35;;
53062;SDS011;40529;52.172;10.548;2023-04-25T07:07:13;24.20;;;5.20;;
53062;SDS011;40529;52.172;10.548;2023-04-25T07:09:39;18.95;;;4.10;;
53062;SDS011;40529;52.172;10.548;2023-04-25T07:12:05;20.52;;;4.05;;
53062;SDS011;40529;52.172;10.548;2023-04-25T07:14:31;23.92;;;4.97;;
53062;SDS011;40529;52.172;10.548;2023-04-25T07:16:57;26.80;;;4.03;;
53062;SDS011;40529;52.172;10.548;2023-04-25T07:19:23;20.73;;;4.07;;
53062;SDS011;40529;52.172;10.548;2023-04-25T07:21:51;17.30;;;5.18;;
53062;SDS011;40529;52.172;10.548;2023-04-25T07:24:17;12.73;;;3.65;;
53062;SDS011;40529;52.172;10.548;2023-04-25T07:26:44;16.10;;;4.38;;
53062;SDS011;40529;52.172;10.548;2023-04-25T07:29:10;13.13;;;3.88;;
53062;SDS011;40529;52.172;10.548;2023-04-25T07:31:36;12.32;;;3.33;;
53062;SDS011;40529;52.172;10.548;2023-04-25T07:34:02;16.38;;;3.53;;
53062;SDS011;40529;52.172;10.548;2023-04-25T07:36:28;20.23;;;3.17;;
53062;SDS011;40529;52.172;10.548;2023-04-25T07:38:55;16.73;;;3.35;;
53062;SDS011;40529;52.172;10.548;2023-04-25T07:41:21;15.88;;;3.17;;
53062;SDS011;40529;52.172;10.548;2023-04-25T07:43:48;14.68;;;2.97;;
53062;SDS011;40529;52.172;10.548;2023-04-25T07:46:14;19.40;;;3.53;;
53062;SDS011;40529;52.172;10.548;2023-04-25T07:48:40;17.75;;;3.45;;
53062;SDS011;40529;52.172;10.548;2023-04-25T07:51:06;12.65;;;3.25;;
53062;SDS011;40529;52.172;10.548;2023-04-25T07:53:32;16.40;;;3.45;;
53062;SDS011;40529;52.172;10.548;2023-04-25T07:55:59;21.38;;;3.83;;
53062;SDS011;40529;52.172;10.548;2023-04-25T07:58:25;20.77;;;4.22;;
53062;SDS011;40529;52.172;10.548;2023-04-25T08:00:52;16.35;;;4.93;;
53062;SDS011;40529;52.172;10.548;2023-04-25T08:03:18;17.55;;;4.57;;
53062;SDS011;40529;52.172;10.548;2023-04-25T08:05:44;23.48;;;5.05;;
53062;SDS011;40529;52.172;10.548;2023-04-25T08:08:10;16.00;;;4.13;;
53062;SDS011;40529;52.172;10.548;2023-04-25T08:10:36;13.70;;;3.95;;
53062;SDS011;40529;52.172;10.548;2023-04-25T08:13:02;14.25;;;4.20;;
53062;SDS011;40529;52.172;10.548;2023-04-25T08:15:28;15.35;;;3.70;;
53062;SDS011;40529;52.172;10.548;2023-04-25T08:17:54;8.38;;;3.58;;
53062;SDS011;40529;52.172;10.548;2023-04-25T08:20:20;12.48;;;4.47;;
53062;SDS011;40529;52.172;10.548;2023-04-25T08:22:46;9.10;;;3.38;;
53062;SDS011;40529;52.172;10.548;2023-04-25T08:25:13;10.15;;;3.42;;
53062;SDS011;40529;52.172;10.548;2023-04-25T08:27:39;14.55;;;3.75;;
53062;SDS011;40529;52.172;10.548;2023-04-25T08:30:06;14.07;;;3.35;;
53062;SDS011;40529;52.172;10.548;2023-04-25T08:32:33;14.60;;;3.55;;
53062;SDS011;40529;52.172;10.548;2023-04-25T08:35:02;10.63;;;2.90;;
53062;SDS011;40529;52.172;10.548;2023-04-25T08:37:28;11.15;;;3.15;;
53062;SDS011;40529;52.172;10.548;2023-04-25T08:39:55;8.95;;;2.88;;
53062;SDS011;40529;52.172;10.548;2023-04-25T08:42:21;15.05;;;3.60;;
53062;SDS011;40529;52.172;10.548;2023-04-25T08:44:48;21.98;;;3.42;;
53062;SDS011;40529;52.172;10.548;2023-04-25T08:47:14;13.32;;;3.00;;
53062;SDS011;40529;52.172;10.548;2023-04-25T08:49:42;25.98;;;5.55;;
53062;SDS011;40529;52.172;10.548;2023-04-25T08:52:11;19.20;;;3.63;;
53062;SDS011;40529;52.172;10.548;2023-04-25T08:54:40;12.02;;;3.10;;
53062;SDS011;40529;52.172;10.548;2023-04-25T08:57:08;16.55;;;3.10;;
53062;SDS011;40529;52.172;10.548;2023-04-25T08:59:37;13.00;;;2.85;;
53062;SDS011;40529;52.172;10.548;2023-04-25T09:02:05;13.13;;;2.80;;
53062;SDS011;40529;52.172;10.548;2023-04-25T09:04:31;11.18;;;2.97;;
53062;SDS011;40529;52.172;10.548;2023-04-25T09:06:58;12.50;;;2.80;;
53062;SDS011;40529;52.172;10.548;2023-04-25T09:09:24;8.38;;;2.80;;
53062;SDS011;40529;52.172;10.548;2023-04-25T09:11:50;10.32;;;2.53;;
53062;SDS011;40529;52.172;10.548;2023-04-25T09:14:19;10.93;;;3.53;;
53062;SDS011;40529;52.172;10.548;2023-04-25T09:19:25;10.30;;;2.33;;
53062;SDS011;40529;52.172;10.548;2023-04-25T09:21:55;11.35;;;2.63;;
53062;SDS011;40529;52.172;10.548;2023-04-25T09:26:47;8.73;;;2.80;;
53062;SDS011;40529;52.172;10.548;2023-04-25T09:29:13;8.63;;;1.98;;
53062;SDS011;40529;52.172;10.548;2023-04-25T09:31:39;14.00;;;2.60;;
53062;SDS011;40529;52.172;10.548;2023-04-25T09:34:05;11.85;;;2.47;;
53062;SDS011;40529;52.172;10.548;2023-04-25T09:36:31;7.45;;;2.25;;
53062;SDS011;40529;52.172;10.548;2023-04-25T09:39:00;6.85;;;2.30;;
53062;SDS011;40529;52.172;10.548;2023-04-25T09:41:26;7.70;;;2.35;;
53062;SDS011;40529;52.172;10.548;2023-04-25T09:43:52;8.52;;;1.98;;
53062;SDS011;40529;52.172;10.548;2023-04-25T09:48:49;8.10;;;1.98;;
53062;SDS011;40529;52.172;10.548;2023-04-25T09:51:15;8.80;;;2.47;;
53062;SDS011;40529;52.172;10.548;2023-04-25T09:53:45;17.38;;;4.25;;
53062;SDS011;40529;52.172;10.548;2023-04-25T09:56:11;10.50;;;2.58;;
53062;SDS011;40529;52.172;10.548;2023-04-25T09:58:41;12.80;;;2.58;;
53062;SDS011;40529;52.172;10.548;2023-04-25T10:01:08;7.63;;;1.95;;
53062;SDS011;40529;52.172;10.548;2023-04-25T10:03:36;8.75;;;2.20;;
53062;SDS011;40529;52.172;10.548;2023-04-25T10:06:08;5.35;;;2.10;;
53062;SDS011;40529;52.172;10.548;2023-04-25T10:08:36;13.05;;;2.97;;
53062;SDS011;40529;52.172;10.548;2023-04-25T10:11:03;8.55;;;2.30;;
53062;SDS011;40529;52.172;10.548;2023-04-25T10:13:30;10.38;;;2.30;;
53062;SDS011;40529;52.172;10.548;2023-04-25T10:15:57;9.52;;;2.50;;
53062;SDS011;40529;52.172;10.548;2023-04-25T10:18:24;10.10;;;2.38;;
53062;SDS011;40529;52.172;10.548;2023-04-25T10:20:50;8.90;;;2.00;;
53062;SDS011;40529;52.172;10.548;2023-04-25T10:23:16;10.30;;;2.58;;
53062;SDS011;40529;52.172;10.548;2023-04-25T10:25:43;8.32;;;1.85;;
53062;SDS011;40529;52.172;10.548;2023-04-25T10:28:09;12.95;;;2.80;;
53062;SDS011;40529;52.172;10.548;2023-04-25T10:30:35;8.27;;;1.75;;
53062;SDS011;40529;52.172;10.548;2023-04-25T10:33:01;11.20;;;1.90;;
53062;SDS011;40529;52.172;10.548;2023-04-25T10:35:28;10.50;;;1.80;;
53062;SDS011;40529;52.172;10.548;2023-04-25T10:38:10;6.63;;;2.00;;
53062;SDS011;40529;52.172;10.548;2023-04-25T10:40:37;7.45;;;1.88;;
53062;SDS011;40529;52.172;10.548;2023-04-25T10:45:52;6.68;;;1.75;;
53062;SDS011;40529;52.172;10.548;2023-04-25T10:48:28;6.20;;;1.60;;
53062;SDS011;40529;52.172;10.548;2023-04-25T10:58:51;7.32;;;1.63;;
53062;SDS011;40529;52.172;10.548;2023-04-25T11:01:20;5.13;;;1.48;;
53062;SDS011;40529;52.172;10.548;2023-04-25T11:03:47;3.63;;;2.03;;
53062;SDS011;40529;52.172;10.548;2023-04-25T11:09:02;3.95;;;1.30;;
53062;SDS011;40529;52.172;10.548;2023-04-25T11:11:28;4.57;;;1.65;;
53062;SDS011;40529;52.172;10.548;2023-04-25T11:13:55;3.78;;;1.40;;
53062;SDS011;40529;52.172;10.548;2023-04-25T11:16:23;6.78;;;2.60;;
53062;SDS011;40529;52.172;10.548;2023-04-25T11:18:50;5.55;;;1.58;;
53062;SDS011;40529;52.172;10.548;2023-04-25T11:21:16;6.18;;;1.42;;
53062;SDS011;40529;52.172;10.548;2023-04-25T11:23:44;3.50;;;1.08;;
53062;SDS011;40529;52.172;10.548;2023-04-25T11:26:10;5.72;;;1.30;;
53062;SDS011;40529;52.172;10.548;2023-04-25T11:28:36;8.05;;;2.03;;
53062;SDS011;40529;52.172;10.548;2023-04-25T11:31:02;7.85;;;1.50;;
53062;SDS011;40529;52.172;10.548;2023-04-25T11:33:28;6.35;;;1.40;;
53062;SDS011;40529;52.172;10.548;2023-04-25T11:35:54;5.07;;;1.38;;
53062;SDS011;40529;52.172;10.548;2023-04-25T11:38:22;5.45;;;1.50;;
53062;SDS011;40529;52.172;10.548;2023-04-25T11:40:51;4.50;;;1.75;;
53062;SDS011;40529;52.172;10.548;2023-04-25T11:45:46;7.65;;;1.80;;
53062;SDS011;40529;52.172;10.548;2023-04-25T11:48:12;4.20;;;1.58;;
53062;SDS011;40529;52.172;10.548;2023-04-25T11:50:41;8.02;;;1.80;;
53062;SDS011;40529;52.172;10.548;2023-04-25T11:53:07;4.57;;;1.30;;
53062;SDS011;40529;52.172;10.548;2023-04-25T11:55:33;12.52;;;2.13;;
53062;SDS011;40529;52.172;10.548;2023-04-25T11:58:01;7.40;;;1.60;;
53062;SDS011;40529;52.172;10.548;2023-04-25T12:00:27;6.13;;;1.92;;
53062;SDS011;40529;52.172;10.548;2023-04-25T12:02:54;6.03;;;1.63;;
53062;SDS011;40529;52.172;10.548;2023-04-25T12:05:20;5.93;;;1.70;;
53062;SDS011;40529;52.172;10.548;2023-04-25T12:07:49;6.50;;;1.85;;
53062;SDS011;40529;52.172;10.548;2023-04-25T12:10:15;4.28;;;1.60;;
53062;SDS011;40529;52.172;10.548;2023-04-25T12:12:42;6.78;;;2.05;;
53062;SDS011;40529;52.172;10.548;2023-04-25T12:15:15;6.85;;;1.42;;
53062;SDS011;40529;52.172;10.548;2023-04-25T12:17:44;7.03;;;1.60;;
53062;SDS011;40529;52.172;10.548;2023-04-25T12:20:12;7.95;;;2.03;;
53062;SDS011;40529;52.172;10.548;2023-04-25T12:22:43;9.35;;;1.90;;
53062;SDS011;40529;52.172;10.548;2023-04-25T12:25:13;6.85;;;1.73;;
53062;SDS011;40529;52.172;10.548;2023-04-25T12:27:40;9.20;;;1.83;;
53062;SDS011;40529;52.172;10.548;2023-04-25T12:30:08;4.22;;;1.35;;
53062;SDS011;40529;52.172;10.548;2023-04-25T12:32:35;7.00;;;1.77;;
53062;SDS011;40529;52.172;10.548;2023-04-25T12:35:02;6.28;;;1.90;;
53062;SDS011;40529;52.172;10.548;2023-04-25T12:37:28;6.10;;;1.50;;
53062;SDS011;40529;52.172;10.548;2023-04-25T12:39:55;7.32;;;1.70;;
53062;SDS011;40529;52.172;10.548;2023-04-25T12:42:21;4.63;;;1.73;;
53062;SDS011;40529;52.172;10.548;2023-04-25T12:44:47;3.63;;;1.50;;
53062;SDS011;40529;52.172;10.548;2023-04-25T12:47:14;4.03;;;1.75;;
53062;SDS011;40529;52.172;10.548;2023-04-25T12:49:40;7.95;;;1.60;;
53062;SDS011;40529;52.172;10.548;2023-04-25T12:52:06;4.63;;;1.50;;
53062;SDS011;40529;52.172;10.548;2023-04-25T12:54:32;7.30;;;1.95;;
53062;SDS011;40529;52.172;10.548;2023-04-25T12:56:58;7.75;;;1.92;;
53062;SDS011;40529;52.172;10.548;2023-04-25T12:59:24;4.65;;;1.60;;
53062;SDS011;40529;52.172;10.548;2023-04-25T13:01:50;5.88;;;2.13;;
53062;SDS011;40529;52.172;10.548;2023-04-25T13:04:16;4.68;;;1.80;;
53062;SDS011;40529;52.172;10.548;2023-04-25T13:06:42;7.95;;;2.05;;
53062;SDS011;40529;52.172;10.548;2023-04-25T13:09:08;8.95;;;2.10;;
53062;SDS011;40529;52.172;10.548;2023-04-25T13:11:34;6.55;;;1.73;;
53062;SDS011;40529;52.172;10.548;2023-04-25T13:14:01;7.70;;;1.95;;
53062;SDS011;40529;52.172;10.548;2023-04-25T13:16:29;6.45;;;1.98;;
53062;SDS011;40529;52.172;10.548;2023-04-25T13:18:56;6.25;;;1.95;;
53062;SDS011;40529;52.172;10.548;2023-04-25T13:21:22;7.72;;;1.58;;
53062;SDS011;40529;52.172;10.548;2023-04-25T13:23:48;6.88;;;1.83;;
53062;SDS011;40529;52.172;10.548;2023-04-25T13:26:14;7.05;;;2.00;;
53062;SDS011;40529;52.172;10.548;2023-04-25T13:28:40;8.30;;;2.40;;
53062;SDS011;40529;52.172;10.548;2023-04-25T13:31:06;7.03;;;1.85;;
53062;SDS011;40529;52.172;10.548;2023-04-25T13:33:33;5.97;;;1.45;;
53062;SDS011;40529;52.172;10.548;2023-04-25T13:36:00;3.90;;;1.60;;
53062;SDS011;40529;52.172;10.548;2023-04-25T13:38:26;7.35;;;1.70;;
53062;SDS011;40529;52.172;10.548;2023-04-25T13:40:52;5.13;;;1.50;;
53062;SDS011;40529;52.172;10.548;2023-04-25T13:43:21;5.22;;;1.77;;
53062;SDS011;40529;52.172;10.548;2023-04-25T13:45:48;5.10;;;1.75;;
53062;SDS011;40529;52.172;10.548;2023-04-25T13:48:14;4.22;;;1.42;;
53062;SDS011;40529;52.172;10.548;2023-04-25T13:50:40;4.93;;;1.48;;
53062;SDS011;40529;52.172;10.548;2023-04-25T13:53:06;7.03;;;1.75;;
53062;SDS011;40529;52.172;10.548;2023-04-25T13:55:33;4.72;;;1.60;;
53062;SDS011;40529;52.172;10.548;2023-04-25T13:58:01;6.47;;;1.60;;
53062;SDS011;40529;52.172;10.548;2023-04-25T14:00:32;3.40;;;1.05;;
53062;SDS011;40529;52.172;10.548;2023-04-25T14:02:58;6.20;;;2.30;;
53062;SDS011;40529;52.172;10.548;2023-04-25T14:05:25;2.60;;;1.30;;
53062;SDS011;40529;52.172;10.548;2023-04-25T14:07:51;3.13;;;1.23;;
53062;SDS011;40529;52.172;10.548;2023-04-25T14:10:17;2.80;;;0.98;;
53062;SDS011;40529;52.172;10.548;2023-04-25T14:12:43;2.17;;;0.75;;
53062;SDS011;40529;52.172;10.548;2023-04-25T14:15:09;1.88;;;0.68;;
53062;SDS011;40529;52.172;10.548;2023-04-25T14:17:35;2.15;;;0.80;;
53062;SDS011;40529;52.172;10.548;2023-04-25T14:20:02;1.77;;;0.75;;
53062;SDS011;40529;52.172;10.548;2023-04-25T14:22:30;4.10;;;1.15;;
53062;SDS011;40529;52.172;10.548;2023-04-25T14:24:56;4.78;;;1.40;;
53062;SDS011;40529;52.172;10.548;2023-04-25T14:27:23;5.07;;;1.02;;
53062;SDS011;40529;52.172;10.548;2023-04-25T14:29:49;5.75;;;2.05;;
53062;SDS011;40529;52.172;10.548;2023-04-25T14:32:16;4.53;;;0.93;;
53062;SDS011;40529;52.172;10.548;2023-04-25T14:34:42;4.90;;;0.95;;
53062;SDS011;40529;52.172;10.548;2023-04-25T14:37:08;2.15;;;0.90;;
53062;SDS011;40529;52.172;10.548;2023-04-25T14:39:34;3.15;;;0.77;;
53062;SDS011;40529;52.172;10.548;2023-04-25T14:42:01;5.22;;;1.25;;
53062;SDS011;40529;52.172;10.548;2023-04-25T14:44:27;3.40;;;1.02;;